Time;durP1;ratioP1;P1;durP2;ratioP2;P2;SDS_P1;SDS_P2;PMS_P1;PMS_P2;Temp;Humidity;BMP_temperature;BMP_pressure;BME280_temperature;BME280_humidity;BME280_pressure;Samples;Min_cycle;Max_cycle;Signal;HPM_P1;HPM_P2
2023/03/12 00:00:18;;;;;;;39.03;14.50;;;-2.10;99.90;;;;;;5053098;28;20067;-78
2023/03/12 00:02:44;;;;;;;109.28;32.72;;;-2.10;99.90;;;;;;5052919;28;20021;-79
2023/03/12 00:05:10;;;;;;;102.38;29.45;;;-2.10;99.90;;;;;;5053179;28;20103;-80
2023/03/12 00:07:36;;;;;;;91.57;29.42;;;-2.10;99.90;;;;;;5051648;28;20017;-79
2023/03/12 00:10:03;;;;;;;70.78;23.00;;;-2.10;99.90;;;;;;5051736;28;20090;-80
2023/03/12 00:12:28;;;;;;;49.85;16.23;;;-2.10;99.90;;;;;;5052799;28;20027;-80
2023/03/12 00:14:54;;;;;;;60.67;18.00;;;-2.00;99.90;;;;;;5051631;28;20029;-78
2023/03/12 00:17:20;;;;;;;39.67;17.17;;;-2.10;99.90;;;;;;5051696;28;20111;-79
2023/03/12 00:19:49;;;;;;;20.77;10.15;;;-2.10;99.90;;;;;;5052975;28;20013;-80
2023/03/12 00:22:15;;;;;;;15.43;9.77;;;-2.10;99.90;;;;;;5052837;28;20032;-80
2023/03/12 00:24:41;;;;;;;37.30;15.52;;;-2.20;99.90;;;;;;5051965;28;20025;-80
2023/03/12 00:27:06;;;;;;;24.05;10.48;;;-2.20;99.90;;;;;;5055557;28;20055;-80
2023/03/12 00:29:32;;;;;;;18.85;10.27;;;-2.20;99.90;;;;;;5055402;28;20029;-79
2023/03/12 00:31:57;;;;;;;17.65;9.50;;;-2.20;99.90;;;;;;5056703;28;20036;-79
2023/03/12 00:34:23;;;;;;;16.75;9.38;;;-2.20;99.90;;;;;;5055499;28;20125;-79
2023/03/12 00:36:49;;;;;;;18.95;10.75;;;-2.30;99.90;;;;;;5055420;28;20470;-79
2023/03/12 00:39:14;;;;;;;19.95;9.07;;;-2.30;99.90;;;;;;5055312;28;20482;-80
2023/03/12 00:41:40;;;;;;;53.42;20.63;;;-2.30;99.90;;;;;;5056604;28;20437;-79
2023/03/12 00:44:06;;;;;;;18.10;8.45;;;-2.30;99.90;;;;;;5056578;28;20028;-80
2023/03/12 00:46:31;;;;;;;22.25;10.90;;;-2.20;99.90;;;;;;5055007;28;20048;-79
2023/03/12 00:48:57;;;;;;;33.65;15.07;;;-2.20;99.90;;;;;;5056346;28;20124;-80
2023/03/12 00:51:22;;;;;;;55.65;20.30;;;-2.20;99.90;;;;;;5055044;28;20017;-80
2023/03/12 00:53:48;;;;;;;17.05;10.95;;;-2.20;99.90;;;;;;5055085;28;20025;-80
2023/03/12 00:56:14;;;;;;;18.08;9.68;;;-2.20;99.90;;;;;;5054908;28;20108;-78
2023/03/12 00:58:41;;;;;;;17.67;9.57;;;-2.20;99.90;;;;;;5054924;28;20389;-79
2023/03/12 01:01:07;;;;;;;13.65;8.55;;;-2.20;99.90;;;;;;5054813;28;20027;-80
2023/03/12 01:03:32;;;;;;;14.60;9.30;;;-2.20;99.90;;;;;;5054897;28;20025;-80
2023/03/12 01:05:58;;;;;;;20.08;10.50;;;-2.20;99.90;;;;;;5054877;28;20448;-79
2023/03/12 01:08:24;;;;;;;19.20;9.48;;;-2.20;99.90;;;;;;5056065;28;20032;-78
2023/03/12 01:10:50;;;;;;;19.38;10.77;;;-2.20;99.90;;;;;;5055912;28;20025;-78
2023/03/12 01:13:16;;;;;;;19.02;9.85;;;-2.30;99.90;;;;;;5054754;28;20013;-78
2023/03/12 01:15:42;;;;;;;18.10;9.80;;;-2.30;99.90;;;;;;5055886;28;20021;-80
2023/03/12 01:18:07;;;;;;;79.03;27.05;;;-2.30;99.90;;;;;;5055979;28;20062;-79
2023/03/12 01:20:33;;;;;;;64.63;21.15;;;-2.30;99.90;;;;;;5055657;28;20536;-78
2023/03/12 01:22:59;;;;;;;65.05;20.55;;;-2.30;99.90;;;;;;5055947;28;20017;-80
2023/03/12 01:25:25;;;;;;;20.02;13.35;;;-2.30;99.90;;;;;;5055713;28;20102;-80
2023/03/12 01:27:51;;;;;;;17.83;10.18;;;-2.20;99.90;;;;;;5054342;28;20073;-80
2023/03/12 01:30:17;;;;;;;24.80;11.35;;;-2.20;99.90;;;;;;5054341;28;20021;-80
2023/03/12 01:32:42;;;;;;;26.90;12.90;;;-2.20;99.90;;;;;;5054653;28;20017;-80
2023/03/12 01:35:08;;;;;;;17.75;10.40;;;-2.20;99.90;;;;;;5054385;28;20025;-80
2023/03/12 01:37:34;;;;;;;23.55;11.15;;;-2.30;99.90;;;;;;5054792;28;20028;-78
2023/03/12 01:40:00;;;;;;;18.25;10.48;;;-2.30;99.90;;;;;;5055509;28;20540;-79
2023/03/12 01:42:25;;;;;;;29.27;12.30;;;-2.40;99.90;;;;;;5055400;28;20412;-78
2023/03/12 01:45:02;;;;;;;20.08;11.23;;;-2.40;99.90;;;;;;5055374;28;20021;-79
2023/03/12 01:47:32;;;;;;;20.75;11.30;;;-2.40;99.90;;;;;;5053570;28;20055;-79
2023/03/12 01:49:59;;;;;;;60.70;20.35;;;-2.40;99.90;;;;;;5053899;28;20477;-78
2023/03/12 01:52:32;;;;;;;22.20;10.43;;;-2.40;99.90;;;;;;5053835;28;20018;-78
2023/03/12 01:55:12;;;;;;;35.70;14.95;;;-2.50;99.90;;;;;;5053844;28;20479;-79
2023/03/12 01:57:42;;;;;;;90.25;26.55;;;-2.40;99.90;;;;;;5053983;28;20497;-80
2023/03/12 02:00:14;;;;;;;40.17;13.80;;;-2.40;99.90;;;;;;5053800;28;20117;-78
2023/03/12 02:02:41;;;;;;;18.75;10.40;;;-2.40;99.90;;;;;;5064504;28;20047;-78
2023/03/12 02:05:19;;;;;;;38.72;15.85;;;-2.40;99.90;;;;;;5073674;28;20044;-78
2023/03/12 02:07:45;;;;;;;19.52;10.70;;;-2.40;99.90;;;;;;5073709;28;20111;-79
2023/03/12 02:10:11;;;;;;;15.82;10.15;;;-2.30;99.90;;;;;;5074893;28;20025;-80
2023/03/12 02:12:37;;;;;;;16.70;9.02;;;-2.30;99.90;;;;;;5073509;28;20028;-80
2023/03/12 02:15:03;;;;;;;21.77;10.32;;;-2.30;99.90;;;;;;5073456;28;20024;-78
2023/03/12 02:17:30;;;;;;;18.77;10.90;;;-2.40;99.90;;;;;;5073559;28;20020;-78
2023/03/12 02:20:17;;;;;;;22.02;11.70;;;-2.30;99.90;;;;;;5074725;28;20378;-80
2023/03/12 02:22:48;;;;;;;17.70;9.20;;;-2.30;99.90;;;;;;5073541;28;20059;-80
2023/03/12 02:25:39;;;;;;;66.82;22.08;;;-2.30;99.90;;;;;;5073471;28;20032;-78
2023/03/12 02:28:09;;;;;;;15.65;10.07;;;-2.30;99.90;;;;;;5073320;28;20036;-78
2023/03/12 02:30:35;;;;;;;22.55;9.27;;;-2.30;99.90;;;;;;5073165;28;20027;-79
2023/03/12 02:33:05;;;;;;;89.65;27.13;;;-2.30;99.90;;;;;;5073278;28;20020;-79
2023/03/12 02:35:31;;;;;;;23.17;10.65;;;-2.30;99.90;;;;;;5073135;28;20146;-79
2023/03/12 02:37:57;;;;;;;16.95;10.20;;;-2.30;99.90;;;;;;5074436;28;20111;-79
2023/03/12 02:40:36;;;;;;;15.73;9.57;;;-2.30;99.90;;;;;;5074340;28;20104;-78
2023/03/12 02:43:04;;;;;;;40.08;14.82;;;-2.30;99.90;;;;;;5073031;28;20028;-80
2023/03/12 02:45:30;;;;;;;18.10;9.82;;;-2.30;99.90;;;;;;5072861;28;20545;-80
2023/03/12 02:47:56;;;;;;;17.42;9.82;;;-2.20;99.90;;;;;;5072286;28;20086;-78
2023/03/12 02:50:22;;;;;;;155.85;44.72;;;-2.20;99.90;;;;;;5072505;28;20409;-80
2023/03/12 02:52:47;;;;;;;49.25;17.35;;;-2.20;99.90;;;;;;5072900;28;20445;-80
2023/03/12 02:55:13;;;;;;;51.10;17.23;;;-2.20;99.90;;;;;;5073887;28;20116;-78
2023/03/12 02:57:38;;;;;;;21.30;10.00;;;-2.20;99.90;;;;;;5073903;28;20016;-80
2023/03/12 03:00:11;;;;;;;21.92;10.15;;;-2.20;99.90;;;;;;5073926;28;20382;-79
2023/03/12 03:02:38;;;;;;;;;;;-2.20;99.90;;;;;;5073005;28;20048;-78
2023/03/12 03:05:04;;;;;;;22.33;10.65;;;-2.20;99.90;;;;;;5072688;28;19991;-80
2023/03/12 03:07:29;;;;;;;17.13;9.90;;;-2.20;99.90;;;;;;5072467;28;20063;-79
2023/03/12 03:09:55;;;;;;;24.27;10.70;;;-2.20;99.90;;;;;;5073673;28;20036;-79
2023/03/12 03:12:21;;;;;;;16.15;11.43;;;-2.20;99.90;;;;;;5073783;28;20055;-79
2023/03/12 03:14:47;;;;;;;34.08;14.82;;;-2.20;99.90;;;;;;5073803;28;20025;-79
2023/03/12 03:17:13;;;;;;;23.75;11.90;;;-2.20;99.90;;;;;;5073611;28;20497;-78
2023/03/12 03:19:39;;;;;;;21.70;12.68;;;-2.30;99.90;;;;;;5073630;28;20024;-80
2023/03/12 03:22:05;;;;;;;21.17;11.60;;;-2.30;99.90;;;;;;5073645;28;20027;-78
2023/03/12 03:24:30;;;;;;;20.48;10.32;;;-2.40;99.90;;;;;;5072436;28;20127;-79
2023/03/12 03:26:56;;;;;;;32.28;13.48;;;-2.40;99.90;;;;;;5072172;28;20024;-79
2023/03/12 03:29:21;;;;;;;18.80;11.40;;;-2.40;99.90;;;;;;5072180;28;20040;-79
2023/03/12 03:31:47;;;;;;;25.08;11.25;;;-2.40;99.90;;;;;;5073334;28;20025;-80
2023/03/12 03:34:12;;;;;;;28.05;12.95;;;-2.40;99.90;;;;;;5072146;28;20170;-80
2023/03/12 03:36:38;;;;;;;20.58;10.68;;;-2.40;99.90;;;;;;5071935;28;20085;-80
2023/03/12 03:39:04;;;;;;;30.95;13.93;;;-2.50;99.90;;;;;;5073398;28;20025;-78
2023/03/12 03:41:31;;;;;;;22.83;11.77;;;-2.50;99.90;;;;;;5072228;28;20378;-79
2023/03/12 03:43:57;;;;;;;23.60;12.07;;;-2.60;99.90;;;;;;5073477;28;20050;-80
2023/03/12 03:46:24;;;;;;;23.50;12.95;;;-2.60;99.90;;;;;;5071988;28;20024;-80
2023/03/12 03:48:49;;;;;;;22.40;11.75;;;-2.70;99.90;;;;;;5071659;28;20048;-78
2023/03/12 03:51:16;;;;;;;28.85;12.75;;;-2.70;99.90;;;;;;5073208;28;20025;-78
2023/03/12 03:53:41;;;;;;;23.50;13.00;;;-2.80;99.90;;;;;;5073211;28;20052;-80
2023/03/12 03:56:13;;;;;;;30.88;13.88;;;-2.80;99.90;;;;;;5071792;28;20055;-80
2023/03/12 03:58:39;;;;;;;27.83;13.00;;;-2.80;99.90;;;;;;5071844;28;20024;-78
2023/03/12 04:01:05;;;;;;;32.38;15.05;;;-2.80;99.90;;;;;;5071645;28;20474;-78
2023/03/12 04:03:31;;;;;;;74.45;26.48;;;-2.90;99.90;;;;;;5071775;28;20545;-80
2023/03/12 04:05:59;;;;;;;37.00;16.00;;;-3.00;99.90;;;;;;5071934;28;20025;-80
2023/03/12 04:08:25;;;;;;;35.28;18.20;;;-3.00;99.90;;;;;;5071595;28;20040;-79
2023/03/12 04:10:52;;;;;;;35.80;17.08;;;-3.00;99.90;;;;;;5073088;28;20028;-79
2023/03/12 04:13:18;;;;;;;36.40;19.10;;;-3.10;99.90;;;;;;5071764;28;20019;-78
2023/03/12 04:15:51;;;;;;;39.28;19.95;;;-3.10;99.90;;;;;;5073124;28;20024;-79
2023/03/12 04:18:17;;;;;;;41.20;20.10;;;-3.10;99.90;;;;;;5071662;28;20025;-79
2023/03/12 04:20:44;;;;;;;39.95;21.38;;;-3.20;99.90;;;;;;5071619;28;20032;-78
2023/03/12 04:23:10;;;;;;;43.17;21.77;;;-3.20;99.90;;;;;;5071775;28;20046;-78
2023/03/12 04:25:36;;;;;;;34.47;20.10;;;-3.20;99.90;;;;;;5071562;28;20427;-78
2023/03/12 04:28:02;;;;;;;43.03;22.05;;;-3.20;99.90;;;;;;5071610;28;20096;-79
2023/03/12 04:30:28;;;;;;;36.08;20.92;;;-3.20;99.90;;;;;;5071500;28;20103;-80
2023/03/12 04:32:54;;;;;;;38.50;21.55;;;-3.20;99.90;;;;;;5072876;28;20063;-79
2023/03/12 04:35:20;;;;;;;42.08;22.58;;;-3.30;99.90;;;;;;5072880;28;20509;-78
2023/03/12 04:37:45;;;;;;;39.35;20.85;;;-3.20;99.90;;;;;;5072713;28;20028;-78
2023/03/12 04:40:12;;;;;;;49.05;21.92;;;-3.20;99.90;;;;;;5071537;28;20054;-78
2023/03/12 04:42:38;;;;;;;42.80;22.75;;;-3.30;99.90;;;;;;5072575;28;20052;-78
2023/03/12 04:45:05;;;;;;;38.88;19.45;;;-3.30;99.90;;;;;;5072734;28;20095;-80
2023/03/12 04:47:32;;;;;;;48.85;23.88;;;-3.30;99.90;;;;;;5071146;28;20044;-78
2023/03/12 04:49:58;;;;;;;56.22;23.25;;;-3.30;99.90;;;;;;5071355;28;20025;-80
2023/03/12 04:52:25;;;;;;;40.17;22.50;;;-3.30;99.90;;;;;;5071316;28;20020;-80
2023/03/12 04:54:52;;;;;;;42.00;19.98;;;-3.20;99.90;;;;;;5071403;28;20056;-78
2023/03/12 04:57:18;;;;;;;44.25;22.60;;;-3.20;99.90;;;;;;5071295;28;20457;-79
2023/03/12 04:59:43;;;;;;;40.13;21.20;;;-3.10;99.90;;;;;;5071423;28;20044;-80
2023/03/12 05:02:09;;;;;;;38.05;20.70;;;-3.10;99.90;;;;;;5072420;28;20020;-79
2023/03/12 05:04:35;;;;;;;34.80;20.23;;;-3.10;99.90;;;;;;5071616;28;20485;-79
2023/03/12 05:07:00;;;;;;;39.13;21.38;;;-3.10;99.90;;;;;;5072485;28;20040;-80
2023/03/12 05:09:26;;;;;;;35.25;19.98;;;-3.10;99.90;;;;;;5072383;28;20102;-78
2023/03/12 05:11:52;;;;;;;40.40;21.63;;;-3.00;99.90;;;;;;5072019;28;20020;-78
2023/03/12 05:14:18;;;;;;;39.65;20.95;;;-3.10;99.90;;;;;;5076044;28;20086;-78
2023/03/12 05:16:43;;;;;;;34.90;17.15;;;-3.00;99.90;;;;;;5075961;28;20112;-78
2023/03/12 05:19:09;;;;;;;33.78;18.27;;;-3.00;99.90;;;;;;5074586;28;20062;-80
2023/03/12 05:21:34;;;;;;;37.38;18.02;;;-2.90;99.90;;;;;;5074472;28;20028;-79
2023/03/12 05:24:00;;;;;;;45.67;22.50;;;-2.90;99.90;;;;;;5074596;28;20017;-78
2023/03/12 05:26:32;;;;;;;37.15;19.45;;;-2.90;99.90;;;;;;5074562;28;20044;-79
2023/03/12 05:28:58;;;;;;;36.45;18.08;;;-2.80;99.90;;;;;;5056193;28;20059;-80
2023/03/12 05:31:24;;;;;;;39.25;20.48;;;-2.80;99.90;;;;;;5054183;28;20032;-80
2023/03/12 05:33:50;;;;;;;40.80;21.42;;;-2.80;99.90;;;;;;5054397;28;20021;-78
2023/03/12 05:36:16;;;;;;;41.80;22.60;;;-2.80;99.90;;;;;;5055594;28;20391;-78
2023/03/12 05:38:43;;;;;;;39.60;21.55;;;-2.80;99.90;;;;;;5054209;28;20449;-79
2023/03/12 05:41:20;;;;;;;38.45;18.38;;;-2.70;99.90;;;;;;5055472;28;20017;-78
2023/03/12 05:43:46;;;;;;;30.45;16.98;;;-2.60;99.90;;;;;;5055374;28;20028;-79
2023/03/12 05:46:11;;;;;;;38.55;19.60;;;-2.60;99.90;;;;;;5054034;28;20406;-78
2023/03/12 05:48:37;;;;;;;36.30;20.52;;;-2.60;99.90;;;;;;5055101;28;20122;-79
2023/03/12 05:51:02;;;;;;;48.00;20.83;;;-2.60;99.90;;;;;;5053993;28;20024;-78
2023/03/12 05:53:28;;;;;;;34.85;18.23;;;-2.50;99.90;;;;;;5054013;28;20025;-79
2023/03/12 05:55:54;;;;;;;41.58;22.08;;;-2.50;99.90;;;;;;5055205;28;20029;-79
2023/03/12 05:58:19;;;;;;;50.30;28.95;;;-2.50;99.90;;;;;;5053888;28;20082;-78
2023/03/12 06:00:45;;;;;;;32.58;16.60;;;-2.50;99.90;;;;;;5053831;28;20075;-79
2023/03/12 06:03:11;;;;;;;27.65;14.95;;;-2.40;99.90;;;;;;5055186;28;20025;-79
2023/03/12 06:05:37;;;;;;;35.83;15.70;;;-2.40;99.90;;;;;;5054931;28;20032;-79
2023/03/12 06:08:04;;;;;;;101.72;37.65;;;-2.40;99.90;;;;;;5053604;28;20029;-80
2023/03/12 06:10:30;;;;;;;172.60;56.63;;;-2.40;99.90;;;;;;5054932;28;20432;-79
2023/03/12 06:12:56;;;;;;;210.13;72.43;;;-2.30;99.90;;;;;;5054885;28;20025;-78
2023/03/12 06:15:22;;;;;;;193.13;66.30;;;-2.30;99.90;;;;;;5053604;28;20017;-78
2023/03/12 06:17:48;;;;;;;175.43;56.03;;;-2.20;99.90;;;;;;5054915;28;20021;-80
2023/03/12 06:20:13;;;;;;;171.90;58.97;;;-2.20;99.90;;;;;;5053406;28;20043;-80
2023/03/12 06:22:39;;;;;;;232.25;74.07;;;-2.10;99.90;;;;;;5053303;28;20024;-79
2023/03/12 06:25:05;;;;;;;143.30;46.45;;;-2.10;99.90;;;;;;5053328;28;20423;-80
2023/03/12 06:27:31;;;;;;;503.52;158.02;;;-1.90;99.90;;;;;;5053199;28;20106;-78
2023/03/12 06:29:57;;;;;;;355.23;105.47;;;-1.90;99.90;;;;;;5054406;28;20502;-80
2023/03/12 06:32:23;;;;;;;209.38;71.15;;;-1.90;99.90;;;;;;5053251;28;20029;-79
2023/03/12 06:34:48;;;;;;;250.65;75.68;;;-1.80;99.90;;;;;;5053261;28;20029;-80
2023/03/12 06:37:14;;;;;;;384.67;120.07;;;-1.70;99.90;;;;;;5052955;28;20021;-77
2023/03/12 06:39:40;;;;;;;497.40;150.32;;;-1.70;99.90;;;;;;5053396;28;20025;-78
2023/03/12 06:42:06;;;;;;;199.07;60.97;;;-1.80;99.90;;;;;;5052950;28;20074;-78
2023/03/12 06:44:32;;;;;;;192.52;60.20;;;-1.70;99.90;;;;;;5054255;28;20025;-78
2023/03/12 06:46:57;;;;;;;305.13;93.57;;;-1.70;99.90;;;;;;5050628;28;20045;-77
2023/03/12 06:49:23;;;;;;;439.17;131.80;;;-1.70;99.90;;;;;;5052688;28;20445;-77
2023/03/12 06:51:49;;;;;;;415.17;128.40;;;-1.70;99.90;;;;;;5053995;28;20057;-76
2023/03/12 06:54:15;;;;;;;386.30;114.88;;;-1.60;99.90;;;;;;5052679;28;20045;-76
2023/03/12 06:56:41;;;;;;;487.48;153.02;;;-1.60;99.90;;;;;;5052575;28;20029;-78
2023/03/12 06:59:07;;;;;;;401.48;120.25;;;-1.50;99.90;;;;;;5052682;28;20021;-77
2023/03/12 07:01:32;;;;;;;337.92;101.53;;;-1.30;99.90;;;;;;5053803;28;20040;-78
2023/03/12 07:03:58;;;;;;;363.83;109.75;;;-1.00;99.90;;;;;;5052470;28;20025;-79
2023/03/12 07:06:24;;;;;;;337.98;96.55;;;-0.90;99.90;;;;;;5053505;28;20033;-79
2023/03/12 07:08:51;;;;;;;310.52;88.85;;;-0.90;99.10;;;;;;5052520;28;20032;-76
2023/03/12 07:11:17;;;;;;;263.33;80.43;;;-0.90;96.50;;;;;;5052083;28;20114;-79
2023/03/12 07:13:43;;;;;;;231.65;75.63;;;-0.90;93.70;;;;;;5052517;28;20029;-77
2023/03/12 07:16:09;;;;;;;306.63;90.75;;;-1.00;93.50;;;;;;5052320;28;20021;-77
2023/03/12 07:18:35;;;;;;;254.10;75.50;;;-0.90;94.30;;;;;;5052418;28;20032;-77
2023/03/12 07:21:01;;;;;;;180.95;51.90;;;-0.90;92.90;;;;;;5053567;28;20025;-78
2023/03/12 07:23:26;;;;;;;143.52;42.72;;;-0.80;91.60;;;;;;5052281;28;20032;-77
2023/03/12 07:25:52;;;;;;;145.70;40.83;;;-0.70;90.10;;;;;;5053544;28;20021;-77
2023/03/12 07:28:19;;;;;;;256.90;76.47;;;-0.50;91.10;;;;;;5058948;28;20115;-79
2023/03/12 07:30:51;;;;;;;256.67;67.85;;;-0.50;91.40;;;;;;5060994;28;20696;-79
2023/03/12 07:33:19;;;;;;;101.60;30.97;;;-0.50;88.40;;;;;;5073216;28;20436;-79
2023/03/12 07:35:46;;;;;;;62.75;20.13;;;-0.40;88.90;;;;;;5069920;28;20059;-80
2023/03/12 07:38:13;;;;;;;90.68;29.00;;;-0.40;84.50;;;;;;5037756;28;20032;-79
2023/03/12 07:40:39;;;;;;;51.63;18.90;;;-0.40;81.70;;;;;;5031233;28;20022;-79
2023/03/12 07:43:11;;;;;;;80.22;23.50;;;-0.40;80.50;;;;;;5030264;28;20032;-79
2023/03/12 07:45:39;;;;;;;63.10;20.25;;;-0.20;81.90;;;;;;5028381;28;20029;-80
2023/03/12 07:48:05;;;;;;;44.55;16.38;;;-0.30;80.00;;;;;;5062815;28;20048;-77
2023/03/12 07:50:31;;;;;;;18.48;8.35;;;-0.30;78.70;;;;;;5069611;28;20021;-77
2023/03/12 07:52:57;;;;;;;27.42;10.20;;;-0.30;78.40;;;;;;5071183;28;20028;-77
2023/03/12 07:55:23;;;;;;;66.82;21.58;;;-0.30;76.70;;;;;;5070175;28;20019;-79
2023/03/12 07:57:49;;;;;;;43.22;13.27;;;-0.30;77.00;;;;;;5071011;28;20115;-78
2023/03/12 08:00:15;;;;;;;14.07;7.43;;;-0.10;76.80;;;;;;5071936;28;20052;-77
2023/03/12 08:02:41;;;;;;;19.08;7.90;;;0.00;75.80;;;;;;5073328;28;20524;-76
2023/03/12 08:05:07;;;;;;;33.63;11.35;;;0.10;75.70;;;;;;5073280;28;20021;-77
2023/03/12 08:07:34;;;;;;;52.30;17.25;;;0.10;75.30;;;;;;5073192;28;20070;-79
2023/03/12 08:10:00;;;;;;;19.02;7.78;;;0.10;76.00;;;;;;5071901;28;20469;-79
2023/03/12 08:12:27;;;;;;;63.97;21.67;;;0.10;76.00;;;;;;5071787;28;20024;-77
2023/03/12 08:14:53;;;;;;;14.38;6.97;;;0.10;76.00;;;;;;5073259;28;20036;-77
2023/03/12 08:17:19;;;;;;;40.88;14.70;;;0.00;75.30;;;;;;5071567;28;20021;-80
2023/03/12 08:19:44;;;;;;;21.23;7.40;;;0.00;76.10;;;;;;5072866;28;20032;-79
2023/03/12 08:22:10;;;;;;;17.27;6.93;;;-0.10;75.50;;;;;;5072944;28;20385;-79
2023/03/12 08:24:36;;;;;;;18.17;7.70;;;-0.10;76.60;;;;;;5073089;28;20025;-77
2023/03/12 08:27:02;;;;;;;26.67;11.05;;;0.20;76.50;;;;;;5072839;28;20045;-79
2023/03/12 08:29:27;;;;;;;28.05;11.10;;;0.40;76.80;;;;;;5072871;28;20028;-79
2023/03/12 08:31:54;;;;;;;11.65;5.70;;;0.50;77.00;;;;;;5071706;28;20024;-77
2023/03/12 08:34:20;;;;;;;34.72;11.93;;;0.60;74.60;;;;;;5072834;28;20091;-77
2023/03/12 08:36:45;;;;;;;33.03;13.43;;;0.80;75.40;;;;;;5071592;28;20055;-77
2023/03/12 08:39:11;;;;;;;25.83;12.32;;;0.90;75.10;;;;;;5071445;28;20023;-77
2023/03/12 08:41:36;;;;;;;32.47;11.75;;;1.30;76.60;;;;;;5071537;28;20112;-79
2023/03/12 08:44:02;;;;;;;23.52;8.60;;;1.30;73.90;;;;;;5071316;28;20020;-80
2023/03/12 08:46:28;;;;;;;12.50;5.10;;;1.30;73.90;;;;;;5071364;28;20031;-78
2023/03/12 08:48:54;;;;;;;13.10;7.20;;;1.20;71.70;;;;;;5076495;28;20036;-77
2023/03/12 08:51:20;;;;;;;12.10;5.03;;;1.20;72.80;;;;;;5075257;28;20485;-79
2023/03/12 08:53:46;;;;;;;35.67;15.40;;;1.10;73.00;;;;;;5076668;28;20408;-77
2023/03/12 08:56:11;;;;;;;10.90;5.20;;;1.30;74.10;;;;;;5076235;28;20017;-79
2023/03/12 08:58:37;;;;;;;8.60;5.20;;;1.30;73.10;;;;;;5075060;28;20039;-79
2023/03/12 09:01:07;;;;;;;12.63;6.18;;;1.30;73.10;;;;;;5075506;28;20021;-79
2023/03/12 09:03:33;;;;;;;15.35;8.25;;;1.30;74.00;;;;;;5074940;28;20450;-77
2023/03/12 09:06:11;;;;;;;15.05;7.13;;;1.30;75.10;;;;;;5074988;28;20059;-79
2023/03/12 09:08:39;;;;;;;11.25;6.20;;;1.10;74.10;;;;;;5074753;28;20048;-79
2023/03/12 09:11:07;;;;;;;57.92;20.40;;;1.00;74.20;;;;;;5074867;28;20107;-79
2023/03/12 09:13:33;;;;;;;20.10;8.75;;;1.20;74.30;;;;;;5074823;28;20024;-77
2023/03/12 09:16:02;;;;;;;19.30;8.68;;;1.50;76.10;;;;;;5076231;28;20103;-79
2023/03/12 09:18:29;;;;;;;25.20;9.38;;;1.50;75.30;;;;;;5075991;28;20444;-79
2023/03/12 09:20:56;;;;;;;30.98;13.23;;;1.50;74.70;;;;;;5075781;28;20419;-79
2023/03/12 09:23:22;;;;;;;28.17;11.48;;;1.50;74.10;;;;;;5074662;28;20371;-77
2023/03/12 09:25:48;;;;;;;13.15;6.72;;;1.70;76.80;;;;;;5075822;28;20468;-79
2023/03/12 09:28:14;;;;;;;11.38;5.95;;;1.90;75.80;;;;;;5074449;28;20024;-79
2023/03/12 09:30:41;;;;;;;7.50;5.22;;;1.80;75.10;;;;;;5075692;28;20053;-77
2023/03/12 09:33:06;;;;;;;47.80;18.88;;;1.60;73.90;;;;;;5074536;28;20016;-79
2023/03/12 09:35:32;;;;;;;6.93;4.90;;;1.90;75.40;;;;;;5074392;28;20367;-79
2023/03/12 09:37:58;;;;;;;10.52;5.20;;;1.90;73.90;;;;;;5075608;28;20428;-78
2023/03/12 09:40:28;;;;;;;14.30;6.50;;;1.90;72.80;;;;;;5073124;28;20024;-80
2023/03/12 09:43:29;;;;;;;7.53;3.40;;;1.90;72.80;;;;;;5054421;28;20013;-80
2023/03/12 09:45:55;;;;;;;7.85;4.47;;;2.00;70.90;;;;;;5055512;28;20103;-79
2023/03/12 09:48:32;;;;;;;12.68;7.15;;;1.80;70.80;;;;;;5054301;28;20045;-77
2023/03/12 09:51:02;;;;;;;7.68;6.05;;;1.80;72.60;;;;;;5054559;28;20467;-78
2023/03/12 09:53:45;;;;;;;19.15;8.88;;;1.90;73.30;;;;;;5055505;28;20013;-78
2023/03/12 09:56:15;;;;;;;13.00;6.00;;;1.90;72.60;;;;;;5055331;28;20025;-78
2023/03/12 09:58:43;;;;;;;9.45;4.28;;;1.90;72.90;;;;;;5054802;28;20046;-78
2023/03/12 10:01:25;;;;;;;7.07;4.38;;;1.80;72.30;;;;;;5055169;28;20021;-78
2023/03/12 10:04:06;;;;;;;5.07;3.97;;;1.80;72.40;;;;;;5055195;28;20378;-80
2023/03/12 10:06:41;;;;;;;10.32;5.50;;;1.90;72.90;;;;;;5053741;28;20382;-78
2023/03/12 10:09:28;;;;;;;7.85;4.25;;;2.10;73.70;;;;;;5054945;28;20060;-78
2023/03/12 10:12:03;;;;;;;18.90;7.38;;;2.20;73.10;;;;;;5053505;28;20071;-78
2023/03/12 10:15:01;;;;;;;7.80;4.75;;;2.30;72.40;;;;;;5053654;28;20502;-78
2023/03/12 10:18:18;;;;;;;10.80;4.20;;;2.50;72.40;;;;;;5054893;28;20059;-79
2023/03/12 10:21:02;;;;;;;5.72;3.65;;;2.70;72.40;;;;;;5045865;28;20047;-78
2023/03/12 10:23:36;;;;;;;8.32;3.97;;;2.90;73.50;;;;;;5052348;28;20481;-78
2023/03/12 10:26:12;;;;;;;15.18;6.82;;;3.20;73.60;;;;;;5054992;28;20398;-78
2023/03/12 10:28:47;;;;;;;7.97;3.83;;;3.20;71.80;;;;;;5053071;28;20048;-78
2023/03/12 10:31:31;;;;;;;6.47;3.40;;;3.20;71.20;;;;;;5058552;28;20074;-78
2023/03/12 10:33:59;;;;;;;10.93;5.85;;;3.20;70.00;;;;;;5069045;28;20029;-78
2023/03/12 10:36:40;;;;;;;6.75;3.50;;;3.20;70.30;;;;;;5052827;28;20060;-79
2023/03/12 10:39:14;;;;;;;7.75;4.72;;;3.10;70.60;;;;;;5052954;28;20486;-79
2023/03/12 10:41:42;;;;;;;14.73;6.72;;;3.00;70.00;;;;;;5052687;28;20028;-78
2023/03/12 10:44:13;;;;;;;6.05;4.15;;;3.00;70.80;;;;;;5053133;28;20025;-78
2023/03/12 10:46:58;;;;;;;7.43;4.13;;;3.00;72.10;;;;;;5052475;28;20386;-78
2023/03/12 10:49:28;;;;;;;7.05;4.55;;;2.80;70.10;;;;;;5054253;28;20033;-79
2023/03/12 10:51:55;;;;;;;6.57;4.40;;;3.00;71.70;;;;;;5053621;28;20081;-79
2023/03/12 10:54:26;;;;;;;7.03;3.72;;;3.10;72.00;;;;;;5052634;28;20136;-79
2023/03/12 10:56:52;;;;;;;61.08;22.23;;;3.30;72.60;;;;;;5053687;28;20025;-79
2023/03/12 10:59:25;;;;;;;15.82;7.30;;;3.50;73.50;;;;;;5052543;28;20029;-78
2023/03/12 11:01:51;;;;;;;8.20;5.22;;;3.50;72.40;;;;;;5053520;28;20028;-78
2023/03/12 11:04:29;;;;;;;21.25;9.85;;;3.30;69.70;;;;;;5053618;28;20037;-78
2023/03/12 11:07:13;;;;;;;8.85;4.68;;;3.20;70.30;;;;;;5052852;28;20120;-79
2023/03/12 11:09:38;;;;;;;8.38;4.45;;;3.10;69.30;;;;;;5051196;28;20036;-79
2023/03/12 11:12:26;;;;;;;7.53;5.18;;;3.20;70.80;;;;;;5045913;28;20029;-79
2023/03/12 11:14:52;;;;;;;12.63;6.22;;;2.90;70.90;;;;;;5045553;28;20056;-78
2023/03/12 11:17:26;;;;;;;10.38;6.10;;;3.00;71.50;;;;;;5053711;28;20411;-80
2023/03/12 11:19:52;;;;;;;8.32;4.82;;;3.00;70.90;;;;;;5052361;28;20155;-79
2023/03/12 11:22:47;;;;;;;14.63;7.63;;;2.90;70.50;;;;;;5052327;28;20124;-80
2023/03/12 11:25:27;;;;;;;8.15;4.32;;;2.80;70.50;;;;;;5044118;28;20075;-79
2023/03/12 11:28:00;;;;;;;9.75;5.20;;;2.80;71.30;;;;;;5052354;28;20021;-80
2023/03/12 11:30:34;;;;;;;7.18;4.63;;;2.90;72.10;;;;;;5053629;28;20457;-79
2023/03/12 11:33:01;;;;;;;12.10;6.72;;;2.80;70.40;;;;;;5052305;28;20021;-79
2023/03/12 11:36:03;;;;;;;10.48;6.60;;;2.80;70.70;;;;;;5052483;28;20028;-78
2023/03/12 11:38:45;;;;;;;8.73;5.13;;;2.90;72.70;;;;;;5055636;28;20379;-79
2023/03/12 11:41:33;;;;;;;7.75;4.90;;;3.10;72.10;;;;;;5072121;28;20020;-79
2023/03/12 11:44:29;;;;;;;9.45;4.25;;;3.10;70.80;;;;;;5067838;28;20746;-79
2023/03/12 11:47:19;;;;;;;10.98;5.50;;;3.30;71.10;;;;;;5052166;28;20052;-79
2023/03/12 11:50:23;;;;;;;7.18;4.18;;;3.60;72.10;;;;;;5042136;28;20509;-79
2023/03/12 11:52:52;;;;;;;7.78;3.40;;;3.60;70.40;;;;;;5045142;28;20025;-79
2023/03/12 11:55:21;;;;;;;5.50;4.00;;;3.50;68.30;;;;;;5049842;28;20074;-79
2023/03/12 11:58:24;;;;;;;9.07;4.70;;;3.50;67.50;;;;;;5050326;28;20051;-79
2023/03/12 12:01:11;;;;;;;7.00;3.75;;;3.60;68.90;;;;;;5053438;28;20441;-81
2023/03/12 12:03:52;;;;;;;4.72;3.85;;;3.70;67.40;;;;;;5046280;28;20895;-81
2023/03/12 12:06:30;;;;;;;7.47;4.47;;;3.80;68.50;;;;;;5034073;28;20466;-81
2023/03/12 12:09:20;;;;;;;7.70;4.07;;;3.60;68.50;;;;;;5037665;28;20132;-81
2023/03/12 12:11:53;;;;;;;18.95;8.18;;;3.80;70.50;;;;;;5039268;28;20068;-79
2023/03/12 12:14:46;;;;;;;8.68;5.63;;;4.00;72.10;;;;;;5030894;28;20494;-80
2023/03/12 12:17:21;;;;;;;;;;;4.10;70.70;;;;;;5050952;28;20155;-82
2023/03/12 12:19:55;;;;;;;5.40;3.03;;;4.00;68.30;;;;;;5046343;28;20336;-84
2023/03/12 12:22:32;;;;;;;3.78;3.22;;;4.10;67.10;;;;;;5051494;28;20044;-84
2023/03/12 12:25:23;;;;;;;7.18;3.92;;;4.00;65.30;;;;;;5055082;28;20468;-78
2023/03/12 12:27:58;;;;;;;10.95;4.57;;;3.90;65.90;;;;;;5054191;28;20394;-79
2023/03/12 12:30:53;;;;;;;5.07;3.08;;;4.00;66.80;;;;;;5055343;28;20053;-78
2023/03/12 12:33:34;;;;;;;6.60;3.15;;;4.10;67.60;;;;;;5053686;28;20033;-80
2023/03/12 12:36:01;;;;;;;4.97;3.33;;;4.10;67.40;;;;;;5052175;28;20033;-80
2023/03/12 12:38:33;;;;;;;4.32;3.35;;;4.10;65.70;;;;;;5037571;28;20112;-80
2023/03/12 12:41:02;;;;;;;6.43;3.75;;;4.10;67.60;;;;;;5034525;28;20060;-81
2023/03/12 12:43:34;;;;;;;8.00;3.47;;;4.00;66.40;;;;;;5034836;28;20022;-81
2023/03/12 12:46:04;;;;;;;8.82;5.15;;;4.00;65.90;;;;;;5036680;28;20475;-81